Time;durP1;ratioP1;P1;durP2;ratioP2;P2;SDS_P1;SDS_P2;PMS_P1;PMS_P2;Temp;Humidity;BMP_temperature;BMP_pressure;BME280_temperature;BME280_humidity;BME280_pressure;Samples;Min_cycle;Max_cycle;Signal;HPM_P1;HPM_P2
2021/05/18 00:02:18;;;;;;;11.63;2.05;;;;;;;;;;5062832;28;20025;-61
2021/05/18 00:04:45;;;;;;;14.75;2.58;;;;;;;;;;5062392;28;20032;-56
2021/05/18 00:07:18;;;;;;;13.30;2.15;;;;;;;;;;5061297;28;20048;-58
2021/05/18 00:12:31;;;;;;;11.13;2.00;;;;;;;;;;5060665;28;19991;-63
2021/05/18 00:14:59;;;;;;;9.82;1.98;;;;;;;;;;5063331;28;20099;-67
2021/05/18 00:17:27;;;;;;;6.43;1.80;;;;;;;;;;5066102;28;20020;-65
2021/05/18 00:19:55;;;;;;;17.83;2.10;;;;;;;;;;5056113;28;20032;-52
2021/05/18 00:22:22;;;;;;;25.02;2.97;;;;;;;;;;5052862;28;20879;-54
2021/05/18 00:24:49;;;;;;;18.17;3.38;;;;;;;;;;5039423;28;20046;-62
2021/05/18 00:27:19;;;;;;;18.17;3.63;;;;;;;;;;5056655;28;20029;-57
2021/05/18 00:29:46;;;;;;;16.00;3.25;;;;;;;;;;5049250;28;20123;-62
2021/05/18 00:32:13;;;;;;;15.23;2.83;;;;;;;;;;5042407;28;20423;-61
2021/05/18 00:34:40;;;;;;;16.80;2.97;;;;;;;;;;5043951;28;20419;-62
2021/05/18 00:37:09;;;;;;;23.33;3.80;;;;;;;;;;5045862;28;20029;-57
2021/05/18 00:39:36;;;;;;;13.05;3.10;;;;;;;;;;5039771;28;20053;-65
2021/05/18 00:42:03;;;;;;;16.35;2.70;;;;;;;;;;5041790;28;20112;-65
2021/05/18 00:44:30;;;;;;;12.07;2.88;;;;;;;;;;5026514;28;20392;-63
2021/05/18 00:46:57;;;;;;;21.90;3.20;;;;;;;;;;5030288;28;20451;-60
2021/05/18 00:49:24;;;;;;;12.85;2.47;;;;;;;;;;5046020;28;20025;-58
2021/05/18 00:51:51;;;;;;;21.05;3.47;;;;;;;;;;5049322;28;20035;-59
2021/05/18 00:54:25;;;;;;;18.48;2.92;;;;;;;;;;5047694;28;20025;-59
2021/05/18 00:59:38;;;;;;;13.30;3.97;;;;;;;;;;5044880;28;20063;-60
2021/05/18 01:02:05;;;;;;;17.13;3.08;;;;;;;;;;5052005;28;20024;-60
2021/05/18 01:04:32;;;;;;;17.00;3.58;;;;;;;;;;5052221;28;20032;-59
2021/05/18 01:06:59;;;;;;;11.55;3.55;;;;;;;;;;5047971;28;20013;-58
2021/05/18 01:09:26;;;;;;;19.15;3.25;;;;;;;;;;5048075;28;20048;-61
2021/05/18 01:11:53;;;;;;;11.98;3.40;;;;;;;;;;5044254;28;20112;-58
2021/05/18 01:14:20;;;;;;;20.33;4.32;;;;;;;;;;5040569;28;20094;-59
2021/05/18 01:16:49;;;;;;;12.88;2.50;;;;;;;;;;5050165;28;20044;-60
2021/05/18 01:19:19;;;;;;;15.13;3.00;;;;;;;;;;5052592;28;21209;-54
2021/05/18 01:21:46;;;;;;;15.45;3.95;;;;;;;;;;5047178;28;20032;-60
2021/05/18 01:24:14;;;;;;;15.65;3.05;;;;;;;;;;5049167;28;20032;-60
2021/05/18 01:26:41;;;;;;;22.55;4.05;;;;;;;;;;5048667;28;20088;-59
2021/05/18 01:29:09;;;;;;;16.23;2.92;;;;;;;;;;5050620;28;20053;-59
2021/05/18 01:31:36;;;;;;;12.60;2.95;;;;;;;;;;5050063;28;20009;-57
2021/05/18 01:34:04;;;;;;;13.00;3.53;;;;;;;;;;5032424;28;20492;-53
2021/05/18 01:36:33;;;;;;;14.73;2.53;;;;;;;;;;5049324;28;20024;-61
2021/05/18 01:39:21;;;;;;;14.43;2.47;;;;;;;;;;5046958;28;20037;-58
2021/05/18 01:44:34;;;;;;;11.82;3.30;;;;;;;;;;5045180;28;20039;-61
2021/05/18 01:47:02;;;;;;;17.08;2.38;;;;;;;;;;5045849;28;20032;-59
2021/05/18 01:49:29;;;;;;;13.43;2.35;;;;;;;;;;5035519;28;20024;-62
2021/05/18 01:51:57;;;;;;;12.05;2.35;;;;;;;;;;5035187;28;20017;-62
2021/05/18 01:54:26;;;;;;;15.57;2.33;;;;;;;;;;5052693;28;20028;-62
2021/05/18 01:57:16;;;;;;;10.60;2.13;;;;;;;;;;5053974;28;20029;-63
2021/05/18 01:59:41;;;;;;;14.98;2.58;;;;;;;;;;5053565;28;20052;-61
2021/05/18 02:02:08;;;;;;;11.48;2.63;;;;;;;;;;5053566;28;20023;-63
2021/05/18 02:04:39;;;;;;;18.55;2.33;;;;;;;;;;5053808;28;20033;-59
2021/05/18 02:07:11;;;;;;;9.15;2.08;;;;;;;;;;5053608;28;20063;-61
2021/05/18 02:09:39;;;;;;;9.70;2.35;;;;;;;;;;5053187;28;20485;-58
2021/05/18 02:12:06;;;;;;;10.25;2.08;;;;;;;;;;5053177;28;20041;-60
2021/05/18 02:14:35;;;;;;;11.07;2.22;;;;;;;;;;5052942;28;20112;-61
2021/05/18 02:17:11;;;;;;;10.77;2.58;;;;;;;;;;5052464;28;20040;-62
2021/05/18 02:19:58;;;;;;;8.27;2.13;;;;;;;;;;5051169;28;20025;-60
2021/05/18 02:25:03;;;;;;;13.80;2.05;;;;;;;;;;5051309;28;20039;-64
2021/05/18 02:27:30;;;;;;;12.82;2.13;;;;;;;;;;5051802;28;20060;-63
2021/05/18 02:29:57;;;;;;;11.73;2.58;;;;;;;;;;5051607;28;20049;-62
2021/05/18 02:32:25;;;;;;;13.32;2.15;;;;;;;;;;5053618;28;20063;-63
2021/05/18 02:34:52;;;;;;;8.50;2.05;;;;;;;;;;5053720;28;20460;-58
2021/05/18 02:37:19;;;;;;;6.22;1.90;;;;;;;;;;5053726;28;20511;-64
2021/05/18 02:39:47;;;;;;;7.80;1.70;;;;;;;;;;5053698;28;20024;-59
2021/05/18 02:42:14;;;;;;;5.00;1.75;;;;;;;;;;5053696;28;20017;-62
2021/05/18 02:44:48;;;;;;;7.63;1.70;;;;;;;;;;5053715;28;20033;-61
2021/05/18 02:50:01;;;;;;;8.25;1.80;;;;;;;;;;5029773;28;20088;-49
2021/05/18 02:52:30;;;;;;;10.80;2.15;;;;;;;;;;5052636;28;20021;-52
2021/05/18 02:54:57;;;;;;;7.78;1.73;;;;;;;;;;5053133;28;20029;-62
2021/05/18 02:57:32;;;;;;;6.65;1.95;;;;;;;;;;5052408;28;20025;-57
2021/05/18 03:00:05;;;;;;;7.60;2.17;;;;;;;;;;5052837;28;20052;-62
2021/05/18 03:02:32;;;;;;;4.90;1.52;;;;;;;;;;5070056;28;20132;-60
2021/05/18 03:04:59;;;;;;;5.75;1.58;;;;;;;;;;5072772;28;20055;-56
2021/05/18 03:07:26;;;;;;;6.72;1.52;;;;;;;;;;5072452;28;20025;-60
2021/05/18 03:09:53;;;;;;;5.10;1.50;;;;;;;;;;5072382;28;20013;-56
2021/05/18 03:12:20;;;;;;;8.48;1.95;;;;;;;;;;5072404;28;20028;-59
2021/05/18 03:14:48;;;;;;;7.55;1.70;;;;;;;;;;5072594;28;20019;-59
2021/05/18 03:17:15;;;;;;;6.03;1.63;;;;;;;;;;5071980;28;20032;-58
2021/05/18 03:19:42;;;;;;;8.20;2.22;;;;;;;;;;5071060;28;20055;-58
2021/05/18 03:22:09;;;;;;;5.55;1.40;;;;;;;;;;5071899;28;20017;-58
2021/05/18 03:24:41;;;;;;;7.60;1.42;;;;;;;;;;5072452;28;20068;-61
2021/05/18 03:27:08;;;;;;;8.90;1.83;;;;;;;;;;5071925;28;20029;-60
2021/05/18 03:29:35;;;;;;;5.85;1.40;;;;;;;;;;5072011;28;20270;-60
2021/05/18 03:34:48;;;;;;;5.43;1.40;;;;;;;;;;5072687;28;20502;-61
2021/05/18 03:37:34;;;;;;;5.35;1.30;;;;;;;;;;5072053;28;20380;-61
2021/05/18 03:40:05;;;;;;;3.03;1.25;;;;;;;;;;5071904;28;20020;-61
2021/05/18 03:42:36;;;;;;;4.80;1.55;;;;;;;;;;5072495;28;20159;-61
2021/05/18 04:12:06;;;;;;;3.85;1.35;;;;;;;;;;5072113;28;20112;-61
2021/05/18 04:17:18;;;;;;;4.25;1.20;;;;;;;;;;5071723;28;20549;-59
2021/05/18 04:19:54;;;;;;;3.25;1.42;;;;;;;;;;5071088;28;20020;-58
2021/05/18 04:38:52;;;;;;;6.97;1.58;;;;;;;;;;5072043;28;20031;-58
2021/05/18 04:52:08;;;;;;;8.15;1.60;;;;;;;;;;5071241;28;20499;-63
2021/05/18 05:00:17;;;;;;;4.93;1.00;;;;;;;;;;5071368;28;20495;-63
2021/05/18 05:08:49;;;;;;;3.25;1.13;;;;;;;;;;4989886;28;20643;-63
2021/05/18 05:16:28;;;;;;;5.65;1.45;;;;;;;;;;5071332;28;20086;-62
2021/05/18 05:18:55;;;;;;;2.75;1.05;;;;;;;;;;5070755;28;20017;-61
2021/05/18 05:21:28;;;;;;;3.83;1.17;;;;;;;;;;5071099;28;20031;-62
2021/05/18 05:23:56;;;;;;;4.22;1.02;;;;;;;;;;5070487;28;20033;-62
2021/05/18 05:26:23;;;;;;;5.20;1.45;;;;;;;;;;5071252;28;20028;-61
2021/05/18 05:28:50;;;;;;;6.55;1.40;;;;;;;;;;5071241;28;20443;-63
2021/05/18 05:31:17;;;;;;;4.35;1.30;;;;;;;;;;5074603;28;20063;-63
2021/05/18 05:33:44;;;;;;;3.38;0.93;;;;;;;;;;5074140;28;20379;-61
2021/05/18 05:36:11;;;;;;;2.50;0.82;;;;;;;;;;5074739;28;20039;-59
2021/05/18 05:38:38;;;;;;;2.95;1.08;;;;;;;;;;5074229;28;20028;-63
2021/05/18 05:41:05;;;;;;;2.72;1.05;;;;;;;;;;5074343;28;20017;-63
2021/05/18 05:43:32;;;;;;;6.18;1.35;;;;;;;;;;5074106;28;20102;-63
2021/05/18 05:46:00;;;;;;;2.13;0.70;;;;;;;;;;5074454;28;20147;-63
2021/05/18 05:48:27;;;;;;;3.92;1.17;;;;;;;;;;5073702;28;20452;-60
2021/05/18 05:50:54;;;;;;;5.13;0.93;;;;;;;;;;5074397;28;20032;-61
2021/05/18 05:53:21;;;;;;;3.25;1.10;;;;;;;;;;5073854;28;20418;-60
2021/05/18 05:55:48;;;;;;;2.22;0.70;;;;;;;;;;5074222;28;20027;-63
2021/05/18 05:58:15;;;;;;;2.08;1.25;;;;;;;;;;5074283;28;20476;-59
2021/05/18 06:00:42;;;;;;;2.85;1.00;;;;;;;;;;5073536;28;20028;-63
2021/05/18 06:03:09;;;;;;;3.95;1.15;;;;;;;;;;5073942;28;20103;-61
2021/05/18 06:05:37;;;;;;;1.55;0.80;;;;;;;;;;5073807;28;20110;-62
2021/05/18 06:08:04;;;;;;;3.30;1.00;;;;;;;;;;5073867;28;20017;-61
2021/05/18 06:10:38;;;;;;;3.42;1.00;;;;;;;;;;5072170;28;20445;-61
2021/05/18 06:34:03;;;;;;;1.05;0.70;;;;;;;;;;5073828;28;20047;-63
2021/05/18 06:36:49;;;;;;;4.55;0.90;;;;;;;;;;5073427;28;20051;-59
2021/05/18 06:41:10;;;;;;;2.83;0.98;;;;;;;;;;5062697;28;20514;-59
2021/05/18 06:43:34;;;;;;;2.55;0.80;;;;;;;;;;5073325;28;20098;-61
2021/05/18 06:46:24;;;;;;;3.42;1.00;;;;;;;;;;5072814;28;20541;-61
2021/05/18 06:48:58;;;;;;;2.42;0.73;;;;;;;;;;5073065;28;20543;-60
2021/05/18 06:51:25;;;;;;;3.50;0.50;;;;;;;;;;5072409;28;20028;-51
2021/05/18 06:53:53;;;;;;;1.77;0.80;;;;;;;;;;5072929;28;20078;-57
2021/05/18 06:56:20;;;;;;;4.00;1.10;;;;;;;;;;5072621;28;20048;-61
2021/05/18 07:01:37;;;;;;;2.25;0.93;;;;;;;;;;5034451;28;20094;-57
2021/05/18 07:04:08;;;;;;;4.43;1.17;;;;;;;;;;5072725;28;20476;-57
2021/05/18 07:06:50;;;;;;;5.72;1.15;;;;;;;;;;5072337;28;20024;-56
2021/05/18 07:09:17;;;;;;;3.15;0.82;;;;;;;;;;5072767;28;20020;-57
2021/05/18 07:11:44;;;;;;;3.33;0.70;;;;;;;;;;5072169;28;20031;-56
2021/05/18 07:14:11;;;;;;;1.95;0.88;;;;;;;;;;5072811;28;20086;-56
2021/05/18 07:16:38;;;;;;;4.35;0.98;;;;;;;;;;5072354;28;20023;-59
2021/05/18 07:19:05;;;;;;;2.28;0.77;;;;;;;;;;5072702;28;20486;-59
2021/05/18 07:21:32;;;;;;;4.07;0.80;;;;;;;;;;5071371;28;20029;-58
2021/05/18 07:23:59;;;;;;;4.55;0.77;;;;;;;;;;5071821;28;20032;-59
2021/05/18 07:26:26;;;;;;;3.33;0.80;;;;;;;;;;5072671;28;20040;-57
2021/05/18 07:28:53;;;;;;;2.28;0.70;;;;;;;;;;5071747;28;20041;-57
2021/05/18 07:31:20;;;;;;;1.92;0.68;;;;;;;;;;5072243;28;20021;-57
2021/05/18 07:33:47;;;;;;;2.50;0.70;;;;;;;;;;5071696;28;20115;-57
2021/05/18 07:36:14;;;;;;;3.15;0.80;;;;;;;;;;5072458;28;20055;-57
2021/05/18 07:38:43;;;;;;;0.80;0.50;;;;;;;;;;5071731;28;20012;-57
2021/05/18 07:41:10;;;;;;;2.42;0.90;;;;;;;;;;5072348;28;20024;-57
2021/05/18 07:43:37;;;;;;;5.10;0.70;;;;;;;;;;5071744;28;20028;-57
2021/05/18 07:46:11;;;;;;;1.50;0.80;;;;;;;;;;5070763;28;20522;-57
2021/05/18 07:51:26;;;;;;;3.22;0.70;;;;;;;;;;5071974;28;20028;-59
2021/05/18 07:59:51;;;;;;;4.70;0.73;;;;;;;;;;5072136;28;20027;-61
2021/05/18 08:07:34;;;;;;;5.82;0.65;;;;;;;;;;5072528;28;20042;-62
2021/05/18 08:10:12;;;;;;;2.90;0.65;;;;;;;;;;5071285;28;20029;-63
2021/05/18 08:12:39;;;;;;;3.30;0.70;;;;;;;;;;5071712;28;20032;-57
2021/05/18 08:48:57;;;;;;;3.40;0.80;;;;;;;;;;5071816;28;20035;-63
2021/05/18 08:58:20;;;;;;;2.03;0.63;;;;;;;;;;5071056;28;20039;-60
2021/05/18 09:37:28;;;;;;;1.63;0.70;;;;;;;;;;5074741;28;20025;-61
2021/05/18 10:14:19;;;;;;;1.60;0.70;;;;;;;;;;5074279;28;20494;-62
2021/05/18 10:34:24;;;;;;;2.70;1.00;;;;;;;;;;5053011;28;20071;-58
2021/05/18 10:36:51;;;;;;;2.35;0.70;;;;;;;;;;5046325;28;20026;-61
2021/05/18 10:39:22;;;;;;;1.52;0.70;;;;;;;;;;5052424;28;20029;-58
2021/05/18 10:41:50;;;;;;;3.50;0.93;;;;;;;;;;5052489;28;20029;-51
2021/05/18 10:44:17;;;;;;;4.53;1.20;;;;;;;;;;5052938;28;20057;-57
2021/05/18 10:47:02;;;;;;;2.97;1.00;;;;;;;;;;5051781;28;20033;-55
2021/05/18 10:49:32;;;;;;;1.95;0.90;;;;;;;;;;5052187;28;20040;-56
2021/05/18 10:52:01;;;;;;;2.30;0.90;;;;;;;;;;5052166;28;20473;-60
2021/05/18 10:54:30;;;;;;;5.47;1.02;;;;;;;;;;5052290;28;20029;-55
2021/05/18 10:56:59;;;;;;;4.35;0.85;;;;;;;;;;5043456;28;20481;-58
2021/05/18 10:59:27;;;;;;;6.63;1.10;;;;;;;;;;5041990;28;20115;-59
2021/05/18 11:02:02;;;;;;;4.57;1.33;;;;;;;;;;5052290;28;20074;-58
2021/05/18 11:04:31;;;;;;;4.47;1.23;;;;;;;;;;5052675;28;20033;-61
2021/05/18 11:07:00;;;;;;;10.77;1.40;;;;;;;;;;5033878;28;20021;-61
2021/05/18 11:09:28;;;;;;;3.88;1.20;;;;;;;;;;5052777;28;20033;-61
2021/05/18 11:12:02;;;;;;;2.33;1.00;;;;;;;;;;5051878;28;20067;-55
2021/05/18 11:14:33;;;;;;;5.47;1.40;;;;;;;;;;5052110;28;20091;-48
2021/05/18 11:17:14;;;;;;;19.27;1.83;;;;;;;;;;5050263;28;20020;-58
2021/05/18 11:19:53;;;;;;;32.83;2.17;;;;;;;;;;5051589;28;20028;-61
2021/05/18 11:25:10;;;;;;;134.00;9.10;;;;;;;;;;5011059;28;20048;-58
2021/05/18 11:27:38;;;;;;;95.97;6.63;;;;;;;;;;5051761;28;20492;-59
2021/05/18 11:30:09;;;;;;;49.78;4.43;;;;;;;;;;5052282;28;20060;-61
2021/05/18 11:32:36;;;;;;;44.45;4.50;;;;;;;;;;5051836;28;20100;-61
2021/05/18 11:35:05;;;;;;;32.63;4.75;;;;;;;;;;5052309;28;20056;-61
2021/05/18 11:37:32;;;;;;;28.95;4.95;;;;;;;;;;5048660;28;20013;-59
2021/05/18 11:40:14;;;;;;;53.08;4.75;;;;;;;;;;5041858;28;20025;-59
2021/05/18 11:42:42;;;;;;;39.92;3.85;;;;;;;;;;5039505;28;20466;-57
2021/05/18 11:45:14;;;;;;;27.67;3.63;;;;;;;;;;5049432;28;20075;-59
2021/05/18 11:47:42;;;;;;;34.60;3.63;;;;;;;;;;5060920;28;20567;-59
2021/05/18 11:50:17;;;;;;;38.67;3.53;;;;;;;;;;5052711;28;20544;-58
2021/05/18 11:52:44;;;;;;;43.42;4.75;;;;;;;;;;5050962;28;20107;-57
2021/05/18 11:55:17;;;;;;;42.20;5.65;;;;;;;;;;5042777;28;20021;-58
2021/05/18 11:57:44;;;;;;;42.80;4.80;;;;;;;;;;5050869;28;20037;-59
2021/05/18 12:00:24;;;;;;;44.50;5.43;;;;;;;;;;5050827;28;20033;-60
2021/05/18 12:03:20;;;;;;;43.30;5.35;;;;;;;;;;5050385;28;20082;-60
2021/05/18 12:05:54;;;;;;;40.25;4.82;;;;;;;;;;5032866;28;20080;-60
2021/05/18 12:08:34;;;;;;;29.13;4.00;;;;;;;;;;5049102;28;20025;-59
2021/05/18 12:11:14;;;;;;;28.55;5.10;;;;;;;;;;5048361;28;20259;-62
2021/05/18 12:13:41;;;;;;;35.30;4.57;;;;;;;;;;5048407;28;20025;-60
2021/05/18 12:16:10;;;;;;;34.60;4.45;;;;;;;;;;5050782;28;20025;-58
2021/05/18 12:18:38;;;;;;;45.75;4.38;;;;;;;;;;5048944;28;20024;-58
2021/05/18 12:21:25;;;;;;;29.75;4.38;;;;;;;;;;5050587;28;20013;-58
2021/05/18 12:24:12;;;;;;;28.35;3.80;;;;;;;;;;5030796;28;20836;-57
2021/05/18 12:27:05;;;;;;;24.60;4.20;;;;;;;;;;5031343;28;20053;-59
2021/05/18 12:29:36;;;;;;;30.77;4.32;;;;;;;;;;5025957;28;20053;-56
2021/05/18 12:32:22;;;;;;;19.23;3.72;;;;;;;;;;5029391;28;20397;-59
2021/05/18 12:34:53;;;;;;;25.95;4.43;;;;;;;;;;5031106;28;20025;-58
2021/05/18 12:37:35;;;;;;;32.03;3.90;;;;;;;;;;5048084;28;20025;-59
2021/05/18 12:40:23;;;;;;;24.02;4.28;;;;;;;;;;5054657;28;20493;-59
2021/05/18 12:42:50;;;;;;;18.17;3.75;;;;;;;;;;5042250;28;20033;-57
2021/05/18 12:45:18;;;;;;;17.20;3.38;;;;;;;;;;5036916;28;20042;-56
2021/05/18 12:47:45;;;;;;;28.55;4.05;;;;;;;;;;5055608;28;20459;-57
2021/05/18 12:50:15;;;;;;;18.25;3.85;;;;;;;;;;5053075;28;20021;-58
2021/05/18 12:52:49;;;;;;;12.95;3.20;;;;;;;;;;5055047;28;20025;-58
2021/05/18 12:55:23;;;;;;;19.92;3.85;;;;;;;;;;5052362;28;20029;-58
2021/05/18 12:57:55;;;;;;;20.33;3.78;;;;;;;;;;5054706;28;20025;-59
2021/05/18 13:00:24;;;;;;;17.35;3.28;;;;;;;;;;5054006;28;20136;-60
2021/05/18 13:02:53;;;;;;;22.13;2.90;;;;;;;;;;5054867;28;20362;-59
2021/05/18 13:05:27;;;;;;;17.33;3.80;;;;;;;;;;5053463;28;20378;-57
2021/05/18 13:08:26;;;;;;;15.05;3.15;;;;;;;;;;5053040;28;20040;-59
2021/05/18 13:13:30;;;;;;;13.57;3.03;;;;;;;;;;5054333;28;20525;-57
2021/05/18 13:16:10;;;;;;;18.05;3.05;;;;;;;;;;5054115;28;20182;-56
2021/05/18 13:18:41;;;;;;;13.38;3.25;;;;;;;;;;5052139;28;20128;-58
2021/05/18 13:21:18;;;;;;;23.80;4.10;;;;;;;;;;5054074;28;20071;-59
2021/05/18 13:26:35;;;;;;;18.23;3.40;;;;;;;;;;5003007;28;20132;-58
2021/05/18 13:29:16;;;;;;;11.90;2.85;;;;;;;;;;5053312;28;20500;-58
2021/05/18 13:31:44;;;;;;;14.38;3.10;;;;;;;;;;5034846;28;20044;-58
2021/05/18 13:34:11;;;;;;;11.45;3.28;;;;;;;;;;5035998;28;20547;-59
2021/05/18 13:36:38;;;;;;;13.70;3.35;;;;;;;;;;5053290;28;20385;-61
2021/05/18 13:39:07;;;;;;;11.85;2.72;;;;;;;;;;5053570;28;20059;-59
2021/05/18 13:41:34;;;;;;;10.63;3.15;;;;;;;;;;5053053;28;20060;-55
2021/05/18 13:44:02;;;;;;;19.38;3.10;;;;;;;;;;5052526;28;20369;-59
2021/05/18 13:46:29;;;;;;;11.63;2.85;;;;;;;;;;5052750;28;20025;-56
2021/05/18 13:48:56;;;;;;;11.15;2.95;;;;;;;;;;5040020;28;20022;-58
2021/05/18 13:51:23;;;;;;;19.17;3.25;;;;;;;;;;5053074;28;20539;-58
2021/05/18 13:53:51;;;;;;;20.65;3.53;;;;;;;;;;5050998;28;20089;-56
2021/05/18 13:56:20;;;;;;;15.40;2.47;;;;;;;;;;5052747;28;20021;-56
2021/05/18 13:58:47;;;;;;;13.73;3.53;;;;;;;;;;5052363;28;20021;-56
2021/05/18 14:01:15;;;;;;;11.02;4.00;;;;;;;;;;5051939;28;20033;-59
2021/05/18 14:03:42;;;;;;;18.05;4.88;;;;;;;;;;5051995;28;20119;-59
2021/05/18 14:06:32;;;;;;;15.63;4.85;;;;;;;;;;5040948;28;20029;-60
2021/05/18 14:08:59;;;;;;;22.27;4.93;;;;;;;;;;5052151;28;20111;-59
2021/05/18 14:11:26;;;;;;;15.43;4.85;;;;;;;;;;5035074;28;20388;-59
2021/05/18 14:13:55;;;;;;;18.00;4.65;;;;;;;;;;5050427;28;20488;-59
2021/05/18 14:16:23;;;;;;;13.70;4.80;;;;;;;;;;5050614;28;20029;-59
2021/05/18 14:18:51;;;;;;;51.40;9.63;;;;;;;;;;5048685;28;20029;-59
2021/05/18 14:21:22;;;;;;;23.85;5.72;;;;;;;;;;5052472;28;20029;-60
2021/05/18 14:26:23;;;;;;;17.38;4.75;;;;;;;;;;5052805;28;20496;-58
2021/05/18 14:28:50;;;;;;;15.50;4.20;;;;;;;;;;5051811;28;20443;-57
2021/05/18 14:31:17;;;;;;;14.65;4.53;;;;;;;;;;5050232;28;20025;-58
2021/05/18 14:33:45;;;;;;;16.92;4.50;;;;;;;;;;5051566;28;20025;-59
2021/05/18 14:36:13;;;;;;;21.13;5.00;;;;;;;;;;5029727;28;20501;-58
2021/05/18 14:38:43;;;;;;;16.92;4.57;;;;;;;;;;5051980;28;20024;-59
2021/05/18 14:44:14;;;;;;;12.00;4.05;;;;;;;;;;5025553;28;20071;-59
2021/05/18 14:55:10;;;;;;;22.67;4.03;;;;;;;;;;5047714;28;20040;-59
2021/05/18 14:57:37;;;;;;;20.08;4.85;;;;;;;;;;5050151;28;20056;-62
2021/05/18 15:00:06;;;;;;;20.30;4.45;;;;;;;;;;5050913;28;20532;-59
2021/05/18 15:02:33;;;;;;;25.77;4.57;;;;;;;;;;5050798;28;20096;-58
2021/05/18 15:05:00;;;;;;;20.75;4.63;;;;;;;;;;5048613;28;20055;-59
2021/05/18 15:07:27;;;;;;;21.27;4.55;;;;;;;;;;5050444;28;20072;-59
2021/05/18 15:09:55;;;;;;;15.40;4.07;;;;;;;;;;5051844;28;20101;-60
2021/05/18 15:12:22;;;;;;;18.58;4.68;;;;;;;;;;5051532;28;20021;-59
2021/05/18 15:14:49;;;;;;;23.17;4.32;;;;;;;;;;5051552;28;20020;-59
2021/05/18 15:17:17;;;;;;;14.55;3.90;;;;;;;;;;5049317;28;20078;-58
2021/05/18 15:19:46;;;;;;;23.42;4.28;;;;;;;;;;5049550;28;20025;-58
2021/05/18 15:22:14;;;;;;;18.35;4.18;;;;;;;;;;5051001;28;20028;-59
2021/05/18 15:24:42;;;;;;;15.45;3.92;;;;;;;;;;5050550;28;20068;-61
2021/05/18 15:27:10;;;;;;;21.50;4.30;;;;;;;;;;5049722;28;20021;-58
2021/05/18 15:29:37;;;;;;;14.40;3.75;;;;;;;;;;5047742;28;20103;-61
2021/05/18 15:32:06;;;;;;;25.02;4.57;;;;;;;;;;5050901;28;20096;-62
2021/05/18 15:34:33;;;;;;;25.83;5.65;;;;;;;;;;5048884;28;20484;-61
2021/05/18 15:37:00;;;;;;;23.80;4.60;;;;;;;;;;5050514;28;20093;-61
2021/05/18 15:39:28;;;;;;;27.15;5.55;;;;;;;;;;5049816;28;20468;-56
2021/05/18 15:41:55;;;;;;;30.90;6.68;;;;;;;;;;5047976;28;20032;-59
2021/05/18 15:44:22;;;;;;;26.67;7.07;;;;;;;;;;5050135;28;20044;-59
2021/05/18 15:46:49;;;;;;;31.30;8.38;;;;;;;;;;5042710;28;20028;-59
2021/05/18 15:49:16;;;;;;;33.70;8.55;;;;;;;;;;5045756;28;20080;-59
2021/05/18 15:51:43;;;;;;;47.28;10.30;;;;;;;;;;5049357;28;20056;-58
2021/05/18 15:54:10;;;;;;;48.58;11.82;;;;;;;;;;5044258;28;20029;-59
2021/05/18 15:56:37;;;;;;;41.50;10.60;;;;;;;;;;5030461;28;20036;-59
2021/05/18 15:59:05;;;;;;;37.58;10.65;;;;;;;;;;5048740;28;20024;-59
2021/05/18 16:01:32;;;;;;;33.00;9.93;;;;;;;;;;5049519;28;20025;-58
2021/05/18 16:03:59;;;;;;;47.22;10.88;;;;;;;;;;5049900;28;20059;-58
2021/05/18 16:06:31;;;;;;;34.70;11.20;;;;;;;;;;5048729;28;20021;-61
2021/05/18 16:08:58;;;;;;;;;;;;;;;;;;5051212;28;20476;-61
2021/05/18 16:11:26;;;;;;;41.42;10.30;;;;;;;;;;5050592;28;19975;-61
2021/05/18 16:13:53;;;;;;;40.72;10.25;;;;;;;;;;5050250;28;20021;-62
2021/05/18 16:16:20;;;;;;;38.85;10.20;;;;;;;;;;5048418;28;20374;-60
2021/05/18 16:18:47;;;;;;;33.38;10.32;;;;;;;;;;5049561;28;20021;-59
2021/05/18 16:21:18;;;;;;;38.03;10.63;;;;;;;;;;5042594;28;20105;-59
2021/05/18 16:23:47;;;;;;;33.17;10.98;;;;;;;;;;5050717;28;20025;-59
2021/05/18 16:26:15;;;;;;;33.15;10.63;;;;;;;;;;5049613;28;20130;-58
2021/05/18 16:28:42;;;;;;;39.20;10.95;;;;;;;;;;5038453;28;20497;-59
2021/05/18 16:31:09;;;;;;;35.92;10.38;;;;;;;;;;5043025;28;20060;-58
2021/05/18 16:33:36;;;;;;;33.40;10.60;;;;;;;;;;5050620;28;20027;-59
2021/05/18 16:36:05;;;;;;;30.23;9.88;;;;;;;;;;5031439;28;20041;-61
2021/05/18 16:38:32;;;;;;;29.63;9.65;;;;;;;;;;5049751;28;20079;-59
2021/05/18 16:41:00;;;;;;;38.05;9.65;;;;;;;;;;5041710;28;20087;-55
2021/05/18 16:43:27;;;;;;;32.63;9.95;;;;;;;;;;5048794;28;20515;-61
2021/05/18 16:45:55;;;;;;;30.75;9.45;;;;;;;;;;5049300;28;20120;-61
2021/05/18 16:48:26;;;;;;;34.17;9.52;;;;;;;;;;5048257;28;20100;-59
2021/05/18 16:50:54;;;;;;;32.95;9.68;;;;;;;;;;5046743;28;20033;-59
2021/05/18 16:53:21;;;;;;;28.67;8.95;;;;;;;;;;5046625;28;20029;-59
2021/05/18 16:55:49;;;;;;;32.78;8.88;;;;;;;;;;5049736;28;20029;-59
2021/05/18 16:58:16;;;;;;;24.13;8.23;;;;;;;;;;5048317;28;20021;-59
2021/05/18 17:00:44;;;;;;;23.45;7.53;;;;;;;;;;5048204;28;20684;-61
2021/05/18 17:03:11;;;;;;;26.75;7.97;;;;;;;;;;5048599;28;20400;-59
2021/05/18 17:05:38;;;;;;;25.85;8.25;;;;;;;;;;5046998;28;20029;-59
2021/05/18 17:08:06;;;;;;;22.40;8.10;;;;;;;;;;5048408;28;20017;-60
2021/05/18 17:10:34;;;;;;;26.15;7.55;;;;;;;;;;5031541;28;20025;-62
2021/05/18 17:13:02;;;;;;;34.35;8.00;;;;;;;;;;5046400;28;20115;-60
2021/05/18 17:15:29;;;;;;;28.52;7.25;;;;;;;;;;5047756;28;20059;-59
2021/05/18 17:17:57;;;;;;;23.42;7.25;;;;;;;;;;5047407;28;20075;-60
2021/05/18 17:20:25;;;;;;;24.10;7.47;;;;;;;;;;5049220;28;20017;-59
2021/05/18 17:22:52;;;;;;;23.27;7.63;;;;;;;;;;5031036;28;20502;-58
2021/05/18 17:25:19;;;;;;;21.58;7.95;;;;;;;;;;5051863;28;20036;-60
2021/05/18 17:27:46;;;;;;;24.63;6.80;;;;;;;;;;5052143;28;20675;-59
2021/05/18 17:30:15;;;;;;;20.20;7.03;;;;;;;;;;5050243;28;20048;-59
2021/05/18 17:32:42;;;;;;;20.67;6.68;;;;;;;;;;5051149;28;20009;-59
2021/05/18 17:35:11;;;;;;;20.25;6.78;;;;;;;;;;5053152;28;20059;-59
2021/05/18 17:37:39;;;;;;;25.70;6.78;;;;;;;;;;5053050;28;20071;-59
2021/05/18 17:40:07;;;;;;;21.35;6.22;;;;;;;;;;5051695;28;20025;-59
2021/05/18 17:42:34;;;;;;;18.98;5.82;;;;;;;;;;5048473;28;20112;-59
2021/05/18 17:45:04;;;;;;;17.25;6.40;;;;;;;;;;5052472;28;20037;-59
2021/05/18 17:47:32;;;;;;;24.08;6.03;;;;;;;;;;5050606;28;20036;-59
2021/05/18 17:49:59;;;;;;;17.45;6.25;;;;;;;;;;5051384;28;20025;-58
2021/05/18 17:52:26;;;;;;;22.77;5.70;;;;;;;;;;5051566;28;20029;-59
2021/05/18 17:54:53;;;;;;;24.70;6.40;;;;;;;;;;5052536;28;20524;-58
2021/05/18 17:57:21;;;;;;;24.60;6.25;;;;;;;;;;5053083;28;20349;-58
2021/05/18 17:59:48;;;;;;;22.15;5.85;;;;;;;;;;5052718;28;20036;-58
2021/05/18 18:02:15;;;;;;;22.15;6.10;;;;;;;;;;5052585;28;20495;-56
2021/05/18 18:04:42;;;;;;;20.00;5.57;;;;;;;;;;5050055;28;20036;-56
2021/05/18 18:07:09;;;;;;;16.17;6.15;;;;;;;;;;5052415;28;20060;-59
2021/05/18 18:09:42;;;;;;;15.85;6.00;;;;;;;;;;5052009;28;20041;-60
2021/05/18 18:12:09;;;;;;;15.00;5.15;;;;;;;;;;5051104;28;20721;-56
2021/05/18 18:14:38;;;;;;;16.70;5.32;;;;;;;;;;5051972;28;20032;-58
2021/05/18 18:17:06;;;;;;;24.48;5.35;;;;;;;;;;5049567;28;20104;-57
2021/05/18 18:19:39;;;;;;;15.95;5.25;;;;;;;;;;5037749;28;20018;-60
2021/05/18 18:22:07;;;;;;;22.13;5.18;;;;;;;;;;5040776;28;20049;-59
2021/05/18 18:24:36;;;;;;;17.73;5.18;;;;;;;;;;5047849;28;20045;-59
2021/05/18 18:27:15;;;;;;;19.02;5.18;;;;;;;;;;5050205;28;20126;-59
2021/05/18 18:29:43;;;;;;;20.02;4.72;;;;;;;;;;5047725;28;20041;-58
2021/05/18 18:32:10;;;;;;;23.70;5.32;;;;;;;;;;5048527;28;20115;-59
2021/05/18 18:34:38;;;;;;;18.17;5.05;;;;;;;;;;5049021;28;20025;-59
2021/05/18 18:37:06;;;;;;;16.70;4.78;;;;;;;;;;5042900;28;20040;-58
2021/05/18 18:39:34;;;;;;;16.88;4.55;;;;;;;;;;5051517;28;20499;-60
2021/05/18 18:42:01;;;;;;;17.15;4.47;;;;;;;;;;5050710;28;20048;-59
2021/05/18 18:44:28;;;;;;;20.83;5.53;;;;;;;;;;5050970;28;20056;-60
2021/05/18 18:46:55;;;;;;;20.45;5.15;;;;;;;;;;5051166;28;20078;-59
2021/05/18 18:49:26;;;;;;;16.92;5.07;;;;;;;;;;5050356;28;20083;-58
2021/05/18 18:51:54;;;;;;;17.27;4.53;;;;;;;;;;5048396;28;20040;-58
2021/05/18 18:54:21;;;;;;;15.82;4.80;;;;;;;;;;5049478;28;20040;-60
2021/05/18 18:56:48;;;;;;;20.63;4.95;;;;;;;;;;5033578;28;20029;-59
2021/05/18 18:59:16;;;;;;;13.25;4.70;;;;;;;;;;5050830;28;20074;-60
2021/05/18 19:01:49;;;;;;;13.40;4.60;;;;;;;;;;5051003;28;20074;-58
2021/05/18 19:04:30;;;;;;;15.40;4.70;;;;;;;;;;5049105;28;20072;-58
2021/05/18 19:07:05;;;;;;;19.02;4.53;;;;;;;;;;5051389;28;20055;-58
2021/05/18 19:14:43;;;;;;;17.50;4.90;;;;;;;;;;5050558;28;20090;-58
2021/05/18 19:17:10;;;;;;;16.80;5.00;;;;;;;;;;5049438;28;20025;-58
2021/05/18 19:19:37;;;;;;;16.58;4.60;;;;;;;;;;5051604;28;20025;-58
2021/05/18 19:22:05;;;;;;;13.45;4.32;;;;;;;;;;5049479;28;20154;-58
2021/05/18 19:24:32;;;;;;;16.10;4.13;;;;;;;;;;5050385;28;20029;-58
2021/05/18 19:26:59;;;;;;;18.52;4.72;;;;;;;;;;5049550;28;20090;-58
2021/05/18 19:29:26;;;;;;;11.50;4.30;;;;;;;;;;5048365;28;20264;-57
2021/05/18 19:31:54;;;;;;;16.63;5.38;;;;;;;;;;5050684;28;20454;-57
2021/05/18 19:34:24;;;;;;;15.60;4.30;;;;;;;;;;5050155;28;20016;-59